sensor_id;sensor_type;location;lat;lon;timestamp;P1;durP1;ratioP1;P2;durP2;ratioP2
15929;SDS011;8064;51.142;4.780;2023-05-16T00:01:56;30.83;;;28.40;;
15929;SDS011;8064;51.142;4.780;2023-05-16T00:04:21;29.73;;;27.40;;
15929;SDS011;8064;51.142;4.780;2023-05-16T00:06:47;31.80;;;29.07;;
15929;SDS011;8064;51.142;4.780;2023-05-16T00:09:13;32.87;;;29.97;;
15929;SDS011;8064;51.142;4.780;2023-05-16T00:11:39;30.30;;;27.97;;
15929;SDS011;8064;51.142;4.780;2023-05-16T00:14:05;31.03;;;28.20;;
15929;SDS011;8064;51.142;4.780;2023-05-16T00:16:31;29.47;;;26.70;;
15929;SDS011;8064;51.142;4.780;2023-05-16T00:18:57;32.67;;;29.90;;
15929;SDS011;8064;51.142;4.780;2023-05-16T00:21:24;28.97;;;26.30;;
15929;SDS011;8064;51.142;4.780;2023-05-16T00:23:50;30.90;;;28.27;;
15929;SDS011;8064;51.142;4.780;2023-05-16T00:26:17;28.00;;;25.60;;
15929;SDS011;8064;51.142;4.780;2023-05-16T00:28:43;27.53;;;25.20;;
15929;SDS011;8064;51.142;4.780;2023-05-16T00:31:08;26.83;;;24.67;;
15929;SDS011;8064;51.142;4.780;2023-05-16T00:33:34;26.60;;;23.80;;
15929;SDS011;8064;51.142;4.780;2023-05-16T00:36:00;28.27;;;26.13;;
15929;SDS011;8064;51.142;4.780;2023-05-16T00:38:26;30.20;;;27.50;;
15929;SDS011;8064;51.142;4.780;2023-05-16T00:40:52;29.13;;;27.00;;
15929;SDS011;8064;51.142;4.780;2023-05-16T00:43:18;29.43;;;26.97;;
15929;SDS011;8064;51.142;4.780;2023-05-16T00:45:44;24.57;;;22.70;;
15929;SDS011;8064;51.142;4.780;2023-05-16T00:48:11;26.33;;;24.03;;
15929;SDS011;8064;51.142;4.780;2023-05-16T00:50:38;24.13;;;22.07;;
15929;SDS011;8064;51.142;4.780;2023-05-16T00:53:04;28.80;;;26.43;;
15929;SDS011;8064;51.142;4.780;2023-05-16T00:55:30;23.33;;;21.33;;
15929;SDS011;8064;51.142;4.780;2023-05-16T00:57:56;28.50;;;25.67;;
15929;SDS011;8064;51.142;4.780;2023-05-16T01:00:23;26.13;;;23.63;;
15929;SDS011;8064;51.142;4.780;2023-05-16T01:02:50;26.40;;;24.07;;
15929;SDS011;8064;51.142;4.780;2023-05-16T01:05:17;26.03;;;23.83;;
15929;SDS011;8064;51.142;4.780;2023-05-16T01:07:44;26.83;;;24.37;;
15929;SDS011;8064;51.142;4.780;2023-05-16T01:10:10;26.37;;;24.07;;
15929;SDS011;8064;51.142;4.780;2023-05-16T01:12:39;23.70;;;21.60;;
15929;SDS011;8064;51.142;4.780;2023-05-16T01:15:16;26.90;;;24.57;;
15929;SDS011;8064;51.142;4.780;2023-05-16T01:18:07;23.53;;;21.23;;
15929;SDS011;8064;51.142;4.780;2023-05-16T01:27:03;21.27;;;19.40;;
15929;SDS011;8064;51.142;4.780;2023-05-16T01:29:30;22.00;;;19.90;;
15929;SDS011;8064;51.142;4.780;2023-05-16T01:31:56;25.03;;;23.13;;
15929;SDS011;8064;51.142;4.780;2023-05-16T01:34:22;24.30;;;22.30;;
15929;SDS011;8064;51.142;4.780;2023-05-16T01:39:51;21.07;;;18.90;;
15929;SDS011;8064;51.142;4.780;2023-05-16T01:42:38;21.57;;;19.73;;
15929;SDS011;8064;51.142;4.780;2023-05-16T01:47:34;22.73;;;20.83;;
15929;SDS011;8064;51.142;4.780;2023-05-16T01:50:07;21.83;;;20.03;;
15929;SDS011;8064;51.142;4.780;2023-05-16T01:52:41;23.10;;;21.13;;
15929;SDS011;8064;51.142;4.780;2023-05-16T01:55:23;23.70;;;21.50;;
15929;SDS011;8064;51.142;4.780;2023-05-16T01:57:59;21.30;;;19.37;;
15929;SDS011;8064;51.142;4.780;2023-05-16T02:00:28;22.23;;;20.53;;
15929;SDS011;8064;51.142;4.780;2023-05-16T02:02:55;19.93;;;18.10;;
15929;SDS011;8064;51.142;4.780;2023-05-16T02:05:21;23.07;;;21.37;;
15929;SDS011;8064;51.142;4.780;2023-05-16T02:07:47;21.87;;;19.97;;
15929;SDS011;8064;51.142;4.780;2023-05-16T02:10:13;21.60;;;19.47;;
15929;SDS011;8064;51.142;4.780;2023-05-16T02:12:39;24.00;;;21.77;;
15929;SDS011;8064;51.142;4.780;2023-05-16T02:15:05;19.80;;;17.80;;
15929;SDS011;8064;51.142;4.780;2023-05-16T02:17:31;21.23;;;19.43;;
15929;SDS011;8064;51.142;4.780;2023-05-16T02:19:57;23.43;;;21.80;;
15929;SDS011;8064;51.142;4.780;2023-05-16T02:22:23;20.63;;;18.70;;
15929;SDS011;8064;51.142;4.780;2023-05-16T02:24:49;22.17;;;19.87;;
15929;SDS011;8064;51.142;4.780;2023-05-16T02:27:15;20.20;;;18.37;;
15929;SDS011;8064;51.142;4.780;2023-05-16T02:29:41;18.53;;;17.03;;
15929;SDS011;8064;51.142;4.780;2023-05-16T02:32:06;18.87;;;17.50;;
15929;SDS011;8064;51.142;4.780;2023-05-16T02:34:32;21.10;;;19.40;;
15929;SDS011;8064;51.142;4.780;2023-05-16T02:36:58;22.93;;;20.47;;
15929;SDS011;8064;51.142;4.780;2023-05-16T02:39:24;19.70;;;17.90;;
15929;SDS011;8064;51.142;4.780;2023-05-16T02:41:50;22.07;;;19.90;;
15929;SDS011;8064;51.142;4.780;2023-05-16T02:44:15;20.77;;;18.97;;
15929;SDS011;8064;51.142;4.780;2023-05-16T02:46:41;19.33;;;17.47;;
15929;SDS011;8064;51.142;4.780;2023-05-16T02:49:07;19.77;;;18.17;;
15929;SDS011;8064;51.142;4.780;2023-05-16T02:51:33;18.33;;;16.73;;
15929;SDS011;8064;51.142;4.780;2023-05-16T02:53:58;20.37;;;18.57;;
15929;SDS011;8064;51.142;4.780;2023-05-16T02:56:25;18.67;;;16.87;;
15929;SDS011;8064;51.142;4.780;2023-05-16T02:58:52;20.30;;;18.30;;
15929;SDS011;8064;51.142;4.780;2023-05-16T03:01:19;20.30;;;18.63;;
15929;SDS011;8064;51.142;4.780;2023-05-16T03:03:45;20.00;;;18.33;;
15929;SDS011;8064;51.142;4.780;2023-05-16T03:06:10;21.40;;;19.50;;
15929;SDS011;8064;51.142;4.780;2023-05-16T03:08:36;19.57;;;17.87;;
15929;SDS011;8064;51.142;4.780;2023-05-16T03:11:02;20.20;;;18.73;;
15929;SDS011;8064;51.142;4.780;2023-05-16T03:13:28;21.07;;;19.30;;
15929;SDS011;8064;51.142;4.780;2023-05-16T03:15:54;18.93;;;17.30;;
15929;SDS011;8064;51.142;4.780;2023-05-16T03:18:20;19.33;;;17.83;;
15929;SDS011;8064;51.142;4.780;2023-05-16T03:20:46;20.57;;;18.60;;
15929;SDS011;8064;51.142;4.780;2023-05-16T03:23:12;18.70;;;17.13;;
15929;SDS011;8064;51.142;4.780;2023-05-16T03:25:38;18.87;;;17.27;;
15929;SDS011;8064;51.142;4.780;2023-05-16T03:28:04;21.00;;;19.37;;
15929;SDS011;8064;51.142;4.780;2023-05-16T03:30:32;19.70;;;17.53;;
15929;SDS011;8064;51.142;4.780;2023-05-16T03:32:58;18.97;;;17.37;;
15929;SDS011;8064;51.142;4.780;2023-05-16T03:35:24;18.63;;;16.77;;
15929;SDS011;8064;51.142;4.780;2023-05-16T03:37:51;16.83;;;15.33;;
15929;SDS011;8064;51.142;4.780;2023-05-16T03:40:17;17.50;;;15.67;;
15929;SDS011;8064;51.142;4.780;2023-05-16T03:42:43;18.80;;;17.17;;
15929;SDS011;8064;51.142;4.780;2023-05-16T03:45:10;19.63;;;17.77;;
15929;SDS011;8064;51.142;4.780;2023-05-16T03:47:36;21.30;;;19.47;;
15929;SDS011;8064;51.142;4.780;2023-05-16T03:50:02;18.03;;;16.43;;
15929;SDS011;8064;51.142;4.780;2023-05-16T03:52:28;20.00;;;18.00;;
15929;SDS011;8064;51.142;4.780;2023-05-16T03:54:54;19.10;;;17.50;;
15929;SDS011;8064;51.142;4.780;2023-05-16T03:57:19;17.13;;;15.53;;
15929;SDS011;8064;51.142;4.780;2023-05-16T03:59:45;18.47;;;17.00;;
15929;SDS011;8064;51.142;4.780;2023-05-16T04:02:11;18.17;;;16.00;;
15929;SDS011;8064;51.142;4.780;2023-05-16T04:04:37;20.07;;;18.13;;
15929;SDS011;8064;51.142;4.780;2023-05-16T04:07:03;21.63;;;19.47;;
15929;SDS011;8064;51.142;4.780;2023-05-16T04:09:29;17.00;;;15.43;;
15929;SDS011;8064;51.142;4.780;2023-05-16T04:11:55;18.50;;;16.93;;
15929;SDS011;8064;51.142;4.780;2023-05-16T04:14:21;19.27;;;17.77;;
15929;SDS011;8064;51.142;4.780;2023-05-16T04:16:48;18.70;;;16.80;;
15929;SDS011;8064;51.142;4.780;2023-05-16T04:19:14;18.30;;;16.57;;
15929;SDS011;8064;51.142;4.780;2023-05-16T04:21:40;18.20;;;16.60;;
15929;SDS011;8064;51.142;4.780;2023-05-16T04:24:06;19.73;;;17.83;;
15929;SDS011;8064;51.142;4.780;2023-05-16T04:26:32;18.57;;;16.90;;
15929;SDS011;8064;51.142;4.780;2023-05-16T04:28:58;21.13;;;19.03;;
15929;SDS011;8064;51.142;4.780;2023-05-16T04:31:24;20.00;;;17.93;;
15929;SDS011;8064;51.142;4.780;2023-05-16T04:33:50;19.90;;;18.40;;
15929;SDS011;8064;51.142;4.780;2023-05-16T04:36:17;18.40;;;16.43;;
15929;SDS011;8064;51.142;4.780;2023-05-16T04:38:42;19.13;;;17.67;;
15929;SDS011;8064;51.142;4.780;2023-05-16T04:41:10;18.13;;;16.33;;
15929;SDS011;8064;51.142;4.780;2023-05-16T04:43:37;20.57;;;18.50;;
15929;SDS011;8064;51.142;4.780;2023-05-16T04:46:03;20.23;;;18.50;;
15929;SDS011;8064;51.142;4.780;2023-05-16T04:48:29;21.03;;;19.33;;
15929;SDS011;8064;51.142;4.780;2023-05-16T04:50:55;23.20;;;20.90;;
15929;SDS011;8064;51.142;4.780;2023-05-16T04:53:21;20.57;;;18.90;;
15929;SDS011;8064;51.142;4.780;2023-05-16T04:55:47;21.43;;;19.33;;
15929;SDS011;8064;51.142;4.780;2023-05-16T04:58:13;22.50;;;20.63;;
15929;SDS011;8064;51.142;4.780;2023-05-16T05:00:38;22.70;;;21.13;;
15929;SDS011;8064;51.142;4.780;2023-05-16T05:03:04;23.40;;;21.57;;
15929;SDS011;8064;51.142;4.780;2023-05-16T05:05:30;24.10;;;22.20;;
15929;SDS011;8064;51.142;4.780;2023-05-16T05:07:56;22.57;;;20.33;;
15929;SDS011;8064;51.142;4.780;2023-05-16T05:10:22;24.53;;;22.33;;
15929;SDS011;8064;51.142;4.780;2023-05-16T05:12:48;26.43;;;24.07;;
15929;SDS011;8064;51.142;4.780;2023-05-16T05:15:14;24.20;;;22.63;;
15929;SDS011;8064;51.142;4.780;2023-05-16T05:17:40;25.40;;;23.63;;
15929;SDS011;8064;51.142;4.780;2023-05-16T05:20:06;26.40;;;23.80;;
15929;SDS011;8064;51.142;4.780;2023-05-16T05:22:32;28.30;;;25.93;;
15929;SDS011;8064;51.142;4.780;2023-05-16T05:24:58;30.03;;;28.03;;
15929;SDS011;8064;51.142;4.780;2023-05-16T05:27:24;28.60;;;26.00;;
15929;SDS011;8064;51.142;4.780;2023-05-16T05:29:51;29.77;;;27.67;;
15929;SDS011;8064;51.142;4.780;2023-05-16T05:32:16;33.83;;;31.27;;
15929;SDS011;8064;51.142;4.780;2023-05-16T05:34:42;30.50;;;28.37;;
15929;SDS011;8064;51.142;4.780;2023-05-16T05:37:08;32.30;;;29.97;;
15929;SDS011;8064;51.142;4.780;2023-05-16T05:39:34;34.53;;;31.63;;
15929;SDS011;8064;51.142;4.780;2023-05-16T05:42:00;31.03;;;28.93;;
15929;SDS011;8064;51.142;4.780;2023-05-16T05:44:28;30.83;;;28.37;;
15929;SDS011;8064;51.142;4.780;2023-05-16T05:46:55;31.10;;;28.77;;
15929;SDS011;8064;51.142;4.780;2023-05-16T05:49:22;31.60;;;29.30;;
15929;SDS011;8064;51.142;4.780;2023-05-16T05:51:48;30.33;;;28.03;;
15929;SDS011;8064;51.142;4.780;2023-05-16T05:54:16;30.33;;;28.07;;
15929;SDS011;8064;51.142;4.780;2023-05-16T05:56:43;34.33;;;31.90;;
15929;SDS011;8064;51.142;4.780;2023-05-16T05:59:09;33.23;;;30.67;;
15929;SDS011;8064;51.142;4.780;2023-05-16T06:01:35;34.03;;;31.50;;
15929;SDS011;8064;51.142;4.780;2023-05-16T06:04:01;34.50;;;32.10;;
15929;SDS011;8064;51.142;4.780;2023-05-16T06:06:26;38.00;;;35.17;;
15929;SDS011;8064;51.142;4.780;2023-05-16T06:08:53;36.37;;;33.57;;
15929;SDS011;8064;51.142;4.780;2023-05-16T06:11:19;35.30;;;32.67;;
15929;SDS011;8064;51.142;4.780;2023-05-16T06:13:46;37.60;;;34.83;;
15929;SDS011;8064;51.142;4.780;2023-05-16T06:16:11;38.23;;;35.57;;
15929;SDS011;8064;51.142;4.780;2023-05-16T06:18:37;38.83;;;36.13;;
15929;SDS011;8064;51.142;4.780;2023-05-16T06:21:04;44.10;;;41.23;;
15929;SDS011;8064;51.142;4.780;2023-05-16T06:23:31;41.90;;;39.07;;
15929;SDS011;8064;51.142;4.780;2023-05-16T06:25:57;44.87;;;41.77;;
15929;SDS011;8064;51.142;4.780;2023-05-16T06:28:23;42.10;;;39.40;;
15929;SDS011;8064;51.142;4.780;2023-05-16T06:30:49;41.07;;;38.27;;
15929;SDS011;8064;51.142;4.780;2023-05-16T06:33:16;41.27;;;38.47;;
15929;SDS011;8064;51.142;4.780;2023-05-16T06:35:42;40.20;;;37.53;;
15929;SDS011;8064;51.142;4.780;2023-05-16T06:38:09;38.20;;;35.53;;
15929;SDS011;8064;51.142;4.780;2023-05-16T06:40:34;36.13;;;33.27;;
15929;SDS011;8064;51.142;4.780;2023-05-16T06:43:01;37.43;;;34.83;;
15929;SDS011;8064;51.142;4.780;2023-05-16T06:45:27;39.97;;;37.10;;
15929;SDS011;8064;51.142;4.780;2023-05-16T06:47:54;39.77;;;37.27;;
15929;SDS011;8064;51.142;4.780;2023-05-16T06:50:21;38.93;;;35.80;;
15929;SDS011;8064;51.142;4.780;2023-05-16T06:52:47;40.53;;;38.07;;
15929;SDS011;8064;51.142;4.780;2023-05-16T06:55:13;37.10;;;34.47;;
15929;SDS011;8064;51.142;4.780;2023-05-16T06:57:38;37.07;;;34.10;;
15929;SDS011;8064;51.142;4.780;2023-05-16T07:00:05;37.47;;;34.77;;
15929;SDS011;8064;51.142;4.780;2023-05-16T07:02:31;36.23;;;33.97;;
15929;SDS011;8064;51.142;4.780;2023-05-16T07:04:57;38.53;;;35.87;;
15929;SDS011;8064;51.142;4.780;2023-05-16T07:07:22;38.30;;;35.83;;
15929;SDS011;8064;51.142;4.780;2023-05-16T07:09:48;37.90;;;35.30;;
15929;SDS011;8064;51.142;4.780;2023-05-16T07:12:14;34.30;;;32.20;;
15929;SDS011;8064;51.142;4.780;2023-05-16T07:14:40;36.67;;;34.37;;
15929;SDS011;8064;51.142;4.780;2023-05-16T07:17:07;37.30;;;34.47;;
15929;SDS011;8064;51.142;4.780;2023-05-16T07:19:33;30.33;;;28.30;;
15929;SDS011;8064;51.142;4.780;2023-05-16T07:21:59;35.27;;;32.97;;
15929;SDS011;8064;51.142;4.780;2023-05-16T07:24:25;32.37;;;30.17;;
15929;SDS011;8064;51.142;4.780;2023-05-16T07:26:51;31.63;;;29.33;;
15929;SDS011;8064;51.142;4.780;2023-05-16T07:29:17;32.50;;;30.17;;
15929;SDS011;8064;51.142;4.780;2023-05-16T07:31:43;32.33;;;30.13;;
15929;SDS011;8064;51.142;4.780;2023-05-16T07:34:09;31.70;;;29.63;;
15929;SDS011;8064;51.142;4.780;2023-05-16T07:36:36;32.90;;;30.67;;
15929;SDS011;8064;51.142;4.780;2023-05-16T07:39:02;32.40;;;30.23;;
15929;SDS011;8064;51.142;4.780;2023-05-16T07:41:29;34.03;;;31.83;;
15929;SDS011;8064;51.142;4.780;2023-05-16T07:43:55;31.93;;;29.83;;
15929;SDS011;8064;51.142;4.780;2023-05-16T07:46:21;31.23;;;28.97;;
15929;SDS011;8064;51.142;4.780;2023-05-16T07:48:49;30.70;;;28.77;;
15929;SDS011;8064;51.142;4.780;2023-05-16T07:51:15;32.10;;;29.97;;
15929;SDS011;8064;51.142;4.780;2023-05-16T07:53:41;33.63;;;31.33;;
15929;SDS011;8064;51.142;4.780;2023-05-16T07:56:07;34.50;;;31.90;;
15929;SDS011;8064;51.142;4.780;2023-05-16T07:58:33;32.93;;;30.93;;
15929;SDS011;8064;51.142;4.780;2023-05-16T08:01:00;33.50;;;31.40;;
15929;SDS011;8064;51.142;4.780;2023-05-16T08:03:26;30.97;;;28.87;;
15929;SDS011;8064;51.142;4.780;2023-05-16T08:05:52;32.27;;;30.33;;
15929;SDS011;8064;51.142;4.780;2023-05-16T08:08:18;31.17;;;29.13;;
15929;SDS011;8064;51.142;4.780;2023-05-16T08:10:44;30.87;;;29.03;;
15929;SDS011;8064;51.142;4.780;2023-05-16T08:13:10;32.17;;;30.23;;
15929;SDS011;8064;51.142;4.780;2023-05-16T08:15:35;31.83;;;29.90;;
15929;SDS011;8064;51.142;4.780;2023-05-16T08:18:01;29.53;;;27.83;;
15929;SDS011;8064;51.142;4.780;2023-05-16T08:20:27;31.37;;;29.37;;
15929;SDS011;8064;51.142;4.780;2023-05-16T08:22:53;31.83;;;30.03;;
15929;SDS011;8064;51.142;4.780;2023-05-16T08:25:19;31.20;;;29.10;;
15929;SDS011;8064;51.142;4.780;2023-05-16T08:27:45;31.50;;;29.60;;
15929;SDS011;8064;51.142;4.780;2023-05-16T08:30:13;29.77;;;28.10;;
15929;SDS011;8064;51.142;4.780;2023-05-16T08:32:39;30.73;;;29.00;;
15929;SDS011;8064;51.142;4.780;2023-05-16T08:35:05;30.33;;;28.40;;
15929;SDS011;8064;51.142;4.780;2023-05-16T08:37:31;30.60;;;28.70;;
15929;SDS011;8064;51.142;4.780;2023-05-16T08:39:58;28.10;;;26.47;;
15929;SDS011;8064;51.142;4.780;2023-05-16T08:42:24;30.17;;;28.47;;
15929;SDS011;8064;51.142;4.780;2023-05-16T08:44:51;31.90;;;29.93;;
15929;SDS011;8064;51.142;4.780;2023-05-16T08:47:17;31.73;;;29.67;;
15929;SDS011;8064;51.142;4.780;2023-05-16T08:49:46;30.33;;;28.57;;
15929;SDS011;8064;51.142;4.780;2023-05-16T08:52:13;29.37;;;27.77;;
15929;SDS011;8064;51.142;4.780;2023-05-16T08:54:43;28.67;;;26.97;;
15929;SDS011;8064;51.142;4.780;2023-05-16T08:57:12;28.40;;;26.70;;
15929;SDS011;8064;51.142;4.780;2023-05-16T08:59:39;28.23;;;26.60;;
15929;SDS011;8064;51.142;4.780;2023-05-16T09:02:05;29.03;;;27.23;;
15929;SDS011;8064;51.142;4.780;2023-05-16T09:04:32;29.20;;;27.70;;
15929;SDS011;8064;51.142;4.780;2023-05-16T09:06:57;30.23;;;28.23;;
15929;SDS011;8064;51.142;4.780;2023-05-16T09:09:23;30.20;;;28.27;;
15929;SDS011;8064;51.142;4.780;2023-05-16T09:11:49;29.20;;;27.47;;
15929;SDS011;8064;51.142;4.780;2023-05-16T09:14:15;28.43;;;26.53;;
15929;SDS011;8064;51.142;4.780;2023-05-16T09:16:41;29.73;;;27.43;;
15929;SDS011;8064;51.142;4.780;2023-05-16T09:19:11;27.33;;;25.67;;
15929;SDS011;8064;51.142;4.780;2023-05-16T09:21:38;27.80;;;25.90;;
15929;SDS011;8064;51.142;4.780;2023-05-16T09:24:05;28.17;;;26.37;;
15929;SDS011;8064;51.142;4.780;2023-05-16T09:26:32;30.17;;;28.43;;
15929;SDS011;8064;51.142;4.780;2023-05-16T09:28:59;29.07;;;27.47;;
15929;SDS011;8064;51.142;4.780;2023-05-16T09:31:27;29.37;;;27.60;;
15929;SDS011;8064;51.142;4.780;2023-05-16T09:34:00;28.97;;;27.13;;
15929;SDS011;8064;51.142;4.780;2023-05-16T09:36:26;27.77;;;26.17;;
15929;SDS011;8064;51.142;4.780;2023-05-16T09:38:52;28.38;;;26.58;;
15929;SDS011;8064;51.142;4.780;2023-05-16T09:41:20;28.80;;;27.07;;
15929;SDS011;8064;51.142;4.780;2023-05-16T09:43:47;26.17;;;24.75;;
15929;SDS011;8064;51.142;4.780;2023-05-16T09:46:13;28.93;;;27.20;;
15929;SDS011;8064;51.142;4.780;2023-05-16T09:48:41;26.67;;;25.17;;
15929;SDS011;8064;51.142;4.780;2023-05-16T09:51:10;27.70;;;25.83;;
15929;SDS011;8064;51.142;4.780;2023-05-16T09:53:37;28.27;;;26.73;;
15929;SDS011;8064;51.142;4.780;2023-05-16T09:56:04;28.17;;;26.23;;
15929;SDS011;8064;51.142;4.780;2023-05-16T09:58:35;25.23;;;23.80;;
15929;SDS011;8064;51.142;4.780;2023-05-16T10:01:03;27.47;;;26.07;;
15929;SDS011;8064;51.142;4.780;2023-05-16T10:03:32;26.97;;;25.53;;
15929;SDS011;8064;51.142;4.780;2023-05-16T10:05:59;26.17;;;24.80;;
15929;SDS011;8064;51.142;4.780;2023-05-16T10:08:26;25.73;;;24.33;;
15929;SDS011;8064;51.142;4.780;2023-05-16T10:10:53;25.03;;;23.63;;
15929;SDS011;8064;51.142;4.780;2023-05-16T10:13:21;26.43;;;24.93;;
15929;SDS011;8064;51.142;4.780;2023-05-16T10:15:48;26.83;;;25.13;;
15929;SDS011;8064;51.142;4.780;2023-05-16T10:18:16;26.23;;;24.83;;
15929;SDS011;8064;51.142;4.780;2023-05-16T10:20:44;26.50;;;24.97;;
15929;SDS011;8064;51.142;4.780;2023-05-16T10:23:15;28.50;;;27.00;;
15929;SDS011;8064;51.142;4.780;2023-05-16T10:25:43;26.43;;;25.03;;
15929;SDS011;8064;51.142;4.780;2023-05-16T10:28:10;26.33;;;24.98;;
15929;SDS011;8064;51.142;4.780;2023-05-16T10:30:39;29.98;;;28.30;;
15929;SDS011;8064;51.142;4.780;2023-05-16T10:33:08;29.23;;;27.70;;
15929;SDS011;8064;51.142;4.780;2023-05-16T10:35:45;29.92;;;28.42;;
15929;SDS011;8064;51.142;4.780;2023-05-16T10:38:11;29.73;;;28.00;;
15929;SDS011;8064;51.142;4.780;2023-05-16T10:40:40;29.23;;;27.63;;
15929;SDS011;8064;51.142;4.780;2023-05-16T10:43:07;28.38;;;26.83;;
15929;SDS011;8064;51.142;4.780;2023-05-16T10:45:34;27.40;;;25.92;;
15929;SDS011;8064;51.142;4.780;2023-05-16T10:48:05;29.30;;;27.73;;
15929;SDS011;8064;51.142;4.780;2023-05-16T11:03:59;27.80;;;26.30;;
15929;SDS011;8064;51.142;4.780;2023-05-16T11:09:19;26.73;;;25.33;;
15929;SDS011;8064;51.142;4.780;2023-05-16T11:14:36;28.17;;;26.53;;
15929;SDS011;8064;51.142;4.780;2023-05-16T11:19:47;26.77;;;25.30;;
15929;SDS011;8064;51.142;4.780;2023-05-16T11:25:08;27.03;;;25.43;;
15929;SDS011;8064;51.142;4.780;2023-05-16T11:28:13;25.87;;;24.47;;
15929;SDS011;8064;51.142;4.780;2023-05-16T11:30:41;28.20;;;26.70;;
15929;SDS011;8064;51.142;4.780;2023-05-16T11:33:08;29.10;;;27.50;;
15929;SDS011;8064;51.142;4.780;2023-05-16T11:35:34;27.60;;;26.10;;
15929;SDS011;8064;51.142;4.780;2023-05-16T11:38:01;27.97;;;26.30;;
15929;SDS011;8064;51.142;4.780;2023-05-16T11:40:27;27.23;;;25.83;;
15929;SDS011;8064;51.142;4.780;2023-05-16T11:42:52;26.70;;;25.33;;
15929;SDS011;8064;51.142;4.780;2023-05-16T11:45:19;27.60;;;25.83;;
15929;SDS011;8064;51.142;4.780;2023-05-16T11:47:49;27.63;;;26.10;;
15929;SDS011;8064;51.142;4.780;2023-05-16T11:50:16;26.00;;;24.67;;
15929;SDS011;8064;51.142;4.780;2023-05-16T11:52:43;26.57;;;25.07;;
15929;SDS011;8064;51.142;4.780;2023-05-16T11:55:11;26.17;;;24.47;;
15929;SDS011;8064;51.142;4.780;2023-05-16T11:57:37;27.13;;;25.63;;
15929;SDS011;8064;51.142;4.780;2023-05-16T12:00:04;25.07;;;23.73;;
15929;SDS011;8064;51.142;4.780;2023-05-16T12:02:40;27.73;;;25.93;;
15929;SDS011;8064;51.142;4.780;2023-05-16T12:05:08;25.83;;;24.33;;
15929;SDS011;8064;51.142;4.780;2023-05-16T12:07:34;26.30;;;25.00;;
15929;SDS011;8064;51.142;4.780;2023-05-16T12:12:41;25.37;;;23.97;;
15929;SDS011;8064;51.142;4.780;2023-05-16T12:15:09;26.87;;;25.47;;
15929;SDS011;8064;51.142;4.780;2023-05-16T12:17:36;27.60;;;25.90;;
15929;SDS011;8064;51.142;4.780;2023-05-16T12:20:03;26.30;;;24.83;;
15929;SDS011;8064;51.142;4.780;2023-05-16T12:22:31;26.23;;;24.83;;
15929;SDS011;8064;51.142;4.780;2023-05-16T12:24:58;28.13;;;26.53;;
15929;SDS011;8064;51.142;4.780;2023-05-16T12:27:41;27.77;;;26.13;;
15929;SDS011;8064;51.142;4.780;2023-05-16T12:30:07;29.10;;;27.53;;
15929;SDS011;8064;51.142;4.780;2023-05-16T12:32:35;26.10;;;24.63;;
15929;SDS011;8064;51.142;4.780;2023-05-16T12:35:01;25.27;;;23.80;;
15929;SDS011;8064;51.142;4.780;2023-05-16T12:37:27;25.07;;;23.77;;
15929;SDS011;8064;51.142;4.780;2023-05-16T12:39:58;25.53;;;24.23;;
15929;SDS011;8064;51.142;4.780;2023-05-16T12:42:25;28.63;;;27.00;;
15929;SDS011;8064;51.142;4.780;2023-05-16T12:44:54;26.73;;;25.03;;
15929;SDS011;8064;51.142;4.780;2023-05-16T12:47:20;26.03;;;24.43;;
15929;SDS011;8064;51.142;4.780;2023-05-16T12:49:47;26.43;;;24.93;;
15929;SDS011;8064;51.142;4.780;2023-05-16T12:52:16;25.33;;;23.97;;
15929;SDS011;8064;51.142;4.780;2023-05-16T12:54:44;26.53;;;24.97;;
15929;SDS011;8064;51.142;4.780;2023-05-16T12:57:10;27.07;;;25.13;;
15929;SDS011;8064;51.142;4.780;2023-05-16T12:59:36;27.20;;;25.60;;
15929;SDS011;8064;51.142;4.780;2023-05-16T13:02:02;27.90;;;26.30;;
15929;SDS011;8064;51.142;4.780;2023-05-16T13:04:28;24.93;;;23.53;;
15929;SDS011;8064;51.142;4.780;2023-05-16T13:06:54;27.07;;;25.40;;
15929;SDS011;8064;51.142;4.780;2023-05-16T13:09:21;27.13;;;25.63;;
15929;SDS011;8064;51.142;4.780;2023-05-16T13:11:47;25.53;;;23.93;;
15929;SDS011;8064;51.142;4.780;2023-05-16T13:14:14;26.90;;;25.40;;
15929;SDS011;8064;51.142;4.780;2023-05-16T13:16:41;24.73;;;23.30;;
15929;SDS011;8064;51.142;4.780;2023-05-16T13:19:08;26.87;;;25.17;;
15929;SDS011;8064;51.142;4.780;2023-05-16T13:21:33;25.90;;;24.57;;
15929;SDS011;8064;51.142;4.780;2023-05-16T13:24:00;27.30;;;25.80;;
15929;SDS011;8064;51.142;4.780;2023-05-16T13:26:25;27.50;;;26.07;;
15929;SDS011;8064;51.142;4.780;2023-05-16T13:28:51;28.67;;;26.97;;
15929;SDS011;8064;51.142;4.780;2023-05-16T13:31:19;27.70;;;26.30;;
15929;SDS011;8064;51.142;4.780;2023-05-16T13:33:46;25.83;;;24.50;;
15929;SDS011;8064;51.142;4.780;2023-05-16T13:36:12;27.07;;;25.57;;
15929;SDS011;8064;51.142;4.780;2023-05-16T13:38:39;25.77;;;24.30;;
15929;SDS011;8064;51.142;4.780;2023-05-16T13:41:05;26.37;;;24.87;;
15929;SDS011;8064;51.142;4.780;2023-05-16T13:43:31;25.23;;;23.87;;
15929;SDS011;8064;51.142;4.780;2023-05-16T13:45:57;25.27;;;23.77;;
15929;SDS011;8064;51.142;4.780;2023-05-16T13:48:22;24.40;;;23.00;;
15929;SDS011;8064;51.142;4.780;2023-05-16T13:50:49;26.23;;;24.53;;
15929;SDS011;8064;51.142;4.780;2023-05-16T13:53:17;25.83;;;24.53;;
15929;SDS011;8064;51.142;4.780;2023-05-16T13:55:42;25.83;;;23.93;;
15929;SDS011;8064;51.142;4.780;2023-05-16T13:58:08;25.73;;;24.23;;
15929;SDS011;8064;51.142;4.780;2023-05-16T14:00:34;25.10;;;23.80;;
15929;SDS011;8064;51.142;4.780;2023-05-16T14:03:00;24.97;;;23.67;;
15929;SDS011;8064;51.142;4.780;2023-05-16T14:05:26;24.90;;;23.50;;
15929;SDS011;8064;51.142;4.780;2023-05-16T14:07:52;25.80;;;24.37;;
15929;SDS011;8064;51.142;4.780;2023-05-16T14:10:18;24.57;;;23.07;;
15929;SDS011;8064;51.142;4.780;2023-05-16T14:12:43;26.17;;;24.77;;
15929;SDS011;8064;51.142;4.780;2023-05-16T14:15:09;25.13;;;23.80;;
15929;SDS011;8064;51.142;4.780;2023-05-16T14:17:35;25.40;;;23.97;;
15929;SDS011;8064;51.142;4.780;2023-05-16T14:20:01;27.50;;;26.00;;
15929;SDS011;8064;51.142;4.780;2023-05-16T14:22:28;25.17;;;23.63;;
15929;SDS011;8064;51.142;4.780;2023-05-16T14:24:56;28.77;;;26.97;;
15929;SDS011;8064;51.142;4.780;2023-05-16T14:27:22;26.40;;;24.90;;
15929;SDS011;8064;51.142;4.780;2023-05-16T14:29:47;26.13;;;24.60;;
15929;SDS011;8064;51.142;4.780;2023-05-16T14:32:13;26.87;;;25.10;;
15929;SDS011;8064;51.142;4.780;2023-05-16T14:34:39;26.60;;;25.20;;
15929;SDS011;8064;51.142;4.780;2023-05-16T14:37:05;26.67;;;25.10;;
15929;SDS011;8064;51.142;4.780;2023-05-16T14:39:31;26.27;;;24.77;;
15929;SDS011;8064;51.142;4.780;2023-05-16T14:41:57;25.77;;;24.37;;
15929;SDS011;8064;51.142;4.780;2023-05-16T14:44:23;27.23;;;25.53;;
15929;SDS011;8064;51.142;4.780;2023-05-16T14:46:49;26.07;;;24.47;;
15929;SDS011;8064;51.142;4.780;2023-05-16T14:49:15;25.17;;;23.77;;
15929;SDS011;8064;51.142;4.780;2023-05-16T14:51:41;26.77;;;25.27;;
15929;SDS011;8064;51.142;4.780;2023-05-16T14:54:09;25.13;;;23.73;;
15929;SDS011;8064;51.142;4.780;2023-05-16T14:56:35;25.63;;;24.37;;
15929;SDS011;8064;51.142;4.780;2023-05-16T14:59:00;24.87;;;23.57;;
15929;SDS011;8064;51.142;4.780;2023-05-16T15:01:26;26.13;;;24.83;;
15929;SDS011;8064;51.142;4.780;2023-05-16T15:03:52;25.30;;;23.70;;
15929;SDS011;8064;51.142;4.780;2023-05-16T15:06:18;24.63;;;23.33;;
15929;SDS011;8064;51.142;4.780;2023-05-16T15:08:43;25.57;;;24.13;;
15929;SDS011;8064;51.142;4.780;2023-05-16T15:11:09;26.53;;;25.07;;